[ EDKA 121620Z AUTO 28009KT 8000 -SHRA ///////// 13/12 Q1013 ]
Windrichtung (graph.)
Inst: 265° 4.5 kt
2min: 277° 4.7 kt
10min: 284° 4 kt
Extrem: 265° – 311° 5.6 kt – 2.3 kt
Crosswind: -2.1 kt
Luftdruck (graph.)
QNH: 1013 hPa Temp: 13.3 °C
QNH: 29.91 inHg DewP: 11.7 °C
QFE: 990 hPa Hum: 90.0 %
QFE: 29.25 inHg